Terminal Aerodrome Forecast
Issued by NWS

Home | Current Version | Previous Version | Text Only | Print | Product List | Glossary On
Versions: 1 2 3 4 5 6 7 8 9 10 11 12 13
334
FTAK31 PAJN 221100
TAFAPG
TAF
PAPG 221140Z 2212/2312 22004KT P6SM SCT110
     FM221700 06007KT P6SM FEW250
     FM230200 10005KT P6SM BKN100
     FM230500 VRB03KT P6SM BKN100
      AMD LTD TO CLD VIS AND WIND 2212/2215=

USA.gov is the U.S. government's official web portal to all federal, state and local government web resources and services.